sensor_id;sensor_type;location;lat;lon;timestamp;pressure;altitude;pressure_sealevel;temperature;humidity
21236;BME280;10775;42.678;26.324;2023-01-27T00:01:55;98010.47;;;6.47;100.00
21236;BME280;10775;42.678;26.324;2023-01-27T00:04:21;98018.41;;;6.35;100.00
21236;BME280;10775;42.678;26.324;2023-01-27T00:06:47;98021.81;;;6.39;100.00
21236;BME280;10775;42.678;26.324;2023-01-27T00:09:12;98010.63;;;6.35;100.00
21236;BME280;10775;42.678;26.324;2023-01-27T00:11:38;98020.75;;;6.53;100.00
21236;BME280;10775;42.678;26.324;2023-01-27T00:14:22;98015.75;;;6.40;100.00
21236;BME280;10775;42.678;26.324;2023-01-27T00:16:47;98007.97;;;6.40;100.00
21236;BME280;10775;42.678;26.324;2023-01-27T00:19:13;98010.53;;;6.43;100.00
21236;BME280;10775;42.678;26.324;2023-01-27T00:21:44;98015.78;;;6.38;100.00
21236;BME280;10775;42.678;26.324;2023-01-27T00:24:28;98012.22;;;6.45;100.00
21236;BME280;10775;42.678;26.324;2023-01-27T00:27:00;98000.19;;;6.40;100.00
21236;BME280;10775;42.678;26.324;2023-01-27T00:29:26;98001.03;;;6.39;100.00
21236;BME280;10775;42.678;26.324;2023-01-27T00:31:52;98000.97;;;6.45;100.00
21236;BME280;10775;42.678;26.324;2023-01-27T00:34:36;97992.47;;;6.34;100.00
21236;BME280;10775;42.678;26.324;2023-01-27T00:37:03;98001.09;;;6.37;100.00
21236;BME280;10775;42.678;26.324;2023-01-27T00:39:29;98000.16;;;6.41;100.00
21236;BME280;10775;42.678;26.324;2023-01-27T00:41:54;98009.50;;;6.53;100.00
21236;BME280;10775;42.678;26.324;2023-01-27T00:44:20;97994.88;;;6.47;100.00
21236;BME280;10775;42.678;26.324;2023-01-27T00:46:48;97988.06;;;6.42;100.00
21236;BME280;10775;42.678;26.324;2023-01-27T00:49:14;98006.28;;;6.37;100.00
21236;BME280;10775;42.678;26.324;2023-01-27T00:51:40;98008.78;;;6.45;100.00
21236;BME280;10775;42.678;26.324;2023-01-27T00:54:07;98004.38;;;6.48;100.00
21236;BME280;10775;42.678;26.324;2023-01-27T00:56:33;98004.38;;;6.48;100.00
21236;BME280;10775;42.678;26.324;2023-01-27T00:58:58;98001.91;;;6.41;100.00
21236;BME280;10775;42.678;26.324;2023-01-27T01:01:24;97992.41;;;6.38;100.00
21236;BME280;10775;42.678;26.324;2023-01-27T01:03:50;97999.25;;;6.45;100.00
21236;BME280;10775;42.678;26.324;2023-01-27T01:06:17;97987.16;;;6.44;100.00
21236;BME280;10775;42.678;26.324;2023-01-27T01:08:43;97987.25;;;6.37;100.00
21236;BME280;10775;42.678;26.324;2023-01-27T01:11:12;97994.09;;;6.41;100.00
21236;BME280;10775;42.678;26.324;2023-01-27T01:13:40;97981.91;;;6.46;100.00
21236;BME280;10775;42.678;26.324;2023-01-27T01:16:17;97974.19;;;6.43;100.00
21236;BME280;10775;42.678;26.324;2023-01-27T01:18:43;97985.44;;;6.42;100.00
21236;BME280;10775;42.678;26.324;2023-01-27T01:21:10;97977.66;;;6.40;100.00
21236;BME280;10775;42.678;26.324;2023-01-27T01:23:41;97972.44;;;6.43;100.00
21236;BME280;10775;42.678;26.324;2023-01-27T01:26:08;97984.63;;;6.40;100.00
21236;BME280;10775;42.678;26.324;2023-01-27T01:28:35;97987.22;;;6.38;100.00
21236;BME280;10775;42.678;26.324;2023-01-27T01:31:06;97962.19;;;6.34;100.00
21236;BME280;10775;42.678;26.324;2023-01-27T01:33:32;97964.69;;;6.39;100.00
21236;BME280;10775;42.678;26.324;2023-01-27T01:36:07;97973.28;;;6.44;100.00
21236;BME280;10775;42.678;26.324;2023-01-27T01:38:33;97953.47;;;6.38;100.00
21236;BME280;10775;42.678;26.324;2023-01-27T01:40:58;97959.44;;;6.45;100.00
21236;BME280;10775;42.678;26.324;2023-01-27T01:43:24;97958.59;;;6.44;100.00
21236;BME280;10775;42.678;26.324;2023-01-27T01:45:56;97956.84;;;6.43;100.00
21236;BME280;10775;42.678;26.324;2023-01-27T01:51:07;97950.91;;;6.37;100.00
21236;BME280;10775;42.678;26.324;2023-01-27T01:56:33;97932.75;;;6.35;100.00
21236;BME280;10775;42.678;26.324;2023-01-27T01:59:04;97905.06;;;6.34;100.00
21236;BME280;10775;42.678;26.324;2023-01-27T02:01:31;97912.88;;;6.32;100.00
21236;BME280;10775;42.678;26.324;2023-01-27T02:04:00;97913.69;;;6.36;100.00
21236;BME280;10775;42.678;26.324;2023-01-27T02:06:27;97913.63;;;6.41;100.00
21236;BME280;10775;42.678;26.324;2023-01-27T02:08:53;97918.81;;;6.41;100.00
21236;BME280;10775;42.678;26.324;2023-01-27T02:11:19;97919.66;;;6.41;100.00
21236;BME280;10775;42.678;26.324;2023-01-27T02:13:45;97911.00;;;6.41;100.00
21236;BME280;10775;42.678;26.324;2023-01-27T02:16:11;97904.88;;;6.46;100.00
21236;BME280;10775;42.678;26.324;2023-01-27T02:18:39;97897.94;;;6.47;100.00
21236;BME280;10775;42.678;26.324;2023-01-27T02:21:05;97884.97;;;6.47;100.00
21236;BME280;10775;42.678;26.324;2023-01-27T02:28:43;97882.50;;;6.38;100.00
21236;BME280;10775;42.678;26.324;2023-01-27T02:31:09;97906.84;;;6.30;100.00
21236;BME280;10775;42.678;26.324;2023-01-27T02:33:35;97927.56;;;6.35;100.00
21236;BME280;10775;42.678;26.324;2023-01-27T02:36:14;97934.50;;;6.35;100.00
21236;BME280;10775;42.678;26.324;2023-01-27T02:38:53;97896.31;;;6.40;100.00
21236;BME280;10775;42.678;26.324;2023-01-27T02:43:54;97854.84;;;6.37;100.00
21236;BME280;10775;42.678;26.324;2023-01-27T02:46:19;97849.66;;;6.35;100.00
21236;BME280;10775;42.678;26.324;2023-01-27T02:48:45;97874.78;;;6.35;100.00
21236;BME280;10775;42.678;26.324;2023-01-27T02:51:11;97861.66;;;6.42;100.00
21236;BME280;10775;42.678;26.324;2023-01-27T02:53:36;97853.09;;;6.37;100.00
21236;BME280;10775;42.678;26.324;2023-01-27T02:56:03;97843.69;;;6.31;100.00
21236;BME280;10775;42.678;26.324;2023-01-27T02:58:29;97840.19;;;6.34;100.00
21236;BME280;10775;42.678;26.324;2023-01-27T03:00:54;97832.38;;;6.34;100.00
21236;BME280;10775;42.678;26.324;2023-01-27T03:03:20;97843.63;;;6.35;100.00
21236;BME280;10775;42.678;26.324;2023-01-27T03:05:46;97847.84;;;6.40;100.00
21236;BME280;10775;42.678;26.324;2023-01-27T03:08:12;97856.38;;;6.48;100.00
21236;BME280;10775;42.678;26.324;2023-01-27T03:10:37;97858.13;;;6.46;100.00
21236;BME280;10775;42.678;26.324;2023-01-27T03:13:03;97844.34;;;6.44;100.00
21236;BME280;10775;42.678;26.324;2023-01-27T03:15:29;97845.91;;;6.53;100.00
21236;BME280;10775;42.678;26.324;2023-01-27T03:18:13;97845.00;;;6.54;100.00
21236;BME280;10775;42.678;26.324;2023-01-27T03:20:45;97834.78;;;6.45;100.00
21236;BME280;10775;42.678;26.324;2023-01-27T03:23:12;97823.56;;;6.43;100.00
21236;BME280;10775;42.678;26.324;2023-01-27T03:25:42;97820.06;;;6.45;100.00
21236;BME280;10775;42.678;26.324;2023-01-27T03:28:08;97815.72;;;6.46;100.00
21236;BME280;10775;42.678;26.324;2023-01-27T03:30:34;97805.25;;;6.52;100.00
21236;BME280;10775;42.678;26.324;2023-01-27T03:33:00;97809.53;;;6.55;100.00
21236;BME280;10775;42.678;26.324;2023-01-27T03:35:27;97818.19;;;6.55;100.00
21236;BME280;10775;42.678;26.324;2023-01-27T03:37:59;97820.78;;;6.53;100.00
21236;BME280;10775;42.678;26.324;2023-01-27T03:40:44;97812.13;;;6.55;100.00
21236;BME280;10775;42.678;26.324;2023-01-27T03:43:28;97831.94;;;6.59;100.00
21236;BME280;10775;42.678;26.324;2023-01-27T03:46:12;97836.19;;;6.64;100.00
21236;BME280;10775;42.678;26.324;2023-01-27T03:48:47;97824.06;;;6.65;100.00
21236;BME280;10775;42.678;26.324;2023-01-27T03:51:13;97823.19;;;6.64;100.00
21236;BME280;10775;42.678;26.324;2023-01-27T03:53:39;97830.13;;;6.64;100.00
21236;BME280;10775;42.678;26.324;2023-01-27T03:56:05;97826.41;;;6.77;100.00
21236;BME280;10775;42.678;26.324;2023-01-27T03:58:33;97826.41;;;6.77;100.00
21236;BME280;10775;42.678;26.324;2023-01-27T04:01:05;97821.34;;;6.71;100.00
21236;BME280;10775;42.678;26.324;2023-01-27T04:03:33;97806.75;;;6.65;100.00
21236;BME280;10775;42.678;26.324;2023-01-27T04:06:21;97808.50;;;6.63;100.00
21236;BME280;10775;42.678;26.324;2023-01-27T04:09:07;97809.28;;;6.67;100.00
21236;BME280;10775;42.678;26.324;2023-01-27T04:11:33;97818.88;;;6.65;100.00
21236;BME280;10775;42.678;26.324;2023-01-27T04:14:34;97813.56;;;6.69;100.00
21236;BME280;10775;42.678;26.324;2023-01-27T04:19:29;97812.72;;;6.70;100.00
21236;BME280;10775;42.678;26.324;2023-01-27T04:21:56;97807.44;;;6.75;100.00
21236;BME280;10775;42.678;26.324;2023-01-27T04:24:22;97808.34;;;6.72;100.00
21236;BME280;10775;42.678;26.324;2023-01-27T04:26:49;97809.25;;;6.70;100.00
21236;BME280;10775;42.678;26.324;2023-01-27T04:29:15;97810.13;;;6.69;100.00
21236;BME280;10775;42.678;26.324;2023-01-27T04:31:42;97809.28;;;6.68;100.00
21236;BME280;10775;42.678;26.324;2023-01-27T04:34:09;97799.78;;;6.67;100.00
21236;BME280;10775;42.678;26.324;2023-01-27T04:36:35;97791.81;;;6.77;100.00
21236;BME280;10775;42.678;26.324;2023-01-27T04:39:01;97797.88;;;6.75;100.00
21236;BME280;10775;42.678;26.324;2023-01-27T04:41:26;97804.91;;;6.70;100.00
21236;BME280;10775;42.678;26.324;2023-01-27T04:43:52;97793.53;;;6.76;100.00
21236;BME280;10775;42.678;26.324;2023-01-27T04:46:18;97791.72;;;6.80;100.00
21236;BME280;10775;42.678;26.324;2023-01-27T04:48:43;97790.94;;;6.76;100.00
21236;BME280;10775;42.678;26.324;2023-01-27T04:51:09;97791.66;;;6.84;100.00
21236;BME280;10775;42.678;26.324;2023-01-27T04:53:35;97771.69;;;6.88;100.00
21236;BME280;10775;42.678;26.324;2023-01-27T04:56:05;97768.34;;;6.81;100.00
21236;BME280;10775;42.678;26.324;2023-01-27T04:58:32;97760.47;;;6.84;100.00
21236;BME280;10775;42.678;26.324;2023-01-27T05:00:58;97758.88;;;6.77;100.00
21236;BME280;10775;42.678;26.324;2023-01-27T05:03:23;97770.19;;;6.74;100.00
21236;BME280;10775;42.678;26.324;2023-01-27T05:05:50;97780.56;;;6.74;100.00
21236;BME280;10775;42.678;26.324;2023-01-27T05:08:16;97788.28;;;6.79;100.00
21236;BME280;10775;42.678;26.324;2023-01-27T05:10:44;97781.25;;;6.86;100.00
21236;BME280;10775;42.678;26.324;2023-01-27T05:13:10;97771.63;;;6.89;100.00
21236;BME280;10775;42.678;26.324;2023-01-27T05:15:36;97769.13;;;6.85;100.00
21236;BME280;10775;42.678;26.324;2023-01-27T05:18:01;97777.81;;;6.84;100.00
21236;BME280;10775;42.678;26.324;2023-01-27T05:20:27;97783.94;;;6.80;100.00
21236;BME280;10775;42.678;26.324;2023-01-27T05:22:53;97773.50;;;6.83;100.00
21236;BME280;10775;42.678;26.324;2023-01-27T05:25:45;97782.06;;;6.88;100.00
21236;BME280;10775;42.678;26.324;2023-01-27T05:28:11;97781.13;;;6.92;100.00
21236;BME280;10775;42.678;26.324;2023-01-27T05:30:36;97784.63;;;6.89;100.00
21236;BME280;10775;42.678;26.324;2023-01-27T05:33:02;97789.00;;;6.87;100.00
21236;BME280;10775;42.678;26.324;2023-01-27T05:35:30;97786.41;;;6.87;100.00
21236;BME280;10775;42.678;26.324;2023-01-27T05:37:57;97797.63;;;6.89;100.00
21236;BME280;10775;42.678;26.324;2023-01-27T05:40:22;97783.78;;;6.89;100.00
21236;BME280;10775;42.678;26.324;2023-01-27T05:42:51;97793.25;;;6.91;100.00
21236;BME280;10775;42.678;26.324;2023-01-27T05:45:17;97792.41;;;6.89;100.00
21236;BME280;10775;42.678;26.324;2023-01-27T05:47:42;97795.09;;;6.86;100.00
21236;BME280;10775;42.678;26.324;2023-01-27T05:50:08;97792.50;;;6.86;100.00
21236;BME280;10775;42.678;26.324;2023-01-27T05:52:34;97788.97;;;6.89;100.00
21236;BME280;10775;42.678;26.324;2023-01-27T05:54:59;97786.31;;;6.92;100.00
21236;BME280;10775;42.678;26.324;2023-01-27T05:57:25;97773.31;;;6.92;100.00
21236;BME280;10775;42.678;26.324;2023-01-27T05:59:51;97770.69;;;6.93;100.00
21236;BME280;10775;42.678;26.324;2023-01-27T06:02:16;97769.81;;;6.94;100.00
21236;BME280;10775;42.678;26.324;2023-01-27T06:04:42;97768.09;;;6.93;100.00
21236;BME280;10775;42.678;26.324;2023-01-27T06:07:07;97764.59;;;6.94;100.00
21236;BME280;10775;42.678;26.324;2023-01-27T06:09:33;97766.28;;;6.97;100.00
21236;BME280;10775;42.678;26.324;2023-01-27T06:11:59;97763.66;;;6.99;100.00
21236;BME280;10775;42.678;26.324;2023-01-27T06:14:24;97753.38;;;6.92;100.00
21236;BME280;10775;42.678;26.324;2023-01-27T06:16:50;97749.91;;;6.93;100.00
21236;BME280;10775;42.678;26.324;2023-01-27T06:19:17;97752.47;;;6.95;100.00
21236;BME280;10775;42.678;26.324;2023-01-27T06:21:43;97746.41;;;6.96;100.00
21236;BME280;10775;42.678;26.324;2023-01-27T06:24:09;97739.28;;;7.06;100.00
21236;BME280;10775;42.678;26.324;2023-01-27T06:26:34;97746.41;;;6.94;100.00
21236;BME280;10775;42.678;26.324;2023-01-27T06:29:00;97742.94;;;6.95;100.00
21236;BME280;10775;42.678;26.324;2023-01-27T06:31:26;97750.63;;;7.00;100.00
21236;BME280;10775;42.678;26.324;2023-01-27T06:33:52;97760.09;;;7.04;100.00
21236;BME280;10775;42.678;26.324;2023-01-27T06:36:20;97772.94;;;7.12;100.00
21236;BME280;10775;42.678;26.324;2023-01-27T06:38:47;97772.75;;;7.19;100.00
21236;BME280;10775;42.678;26.324;2023-01-27T06:41:13;97762.22;;;7.27;100.00
21236;BME280;10775;42.678;26.324;2023-01-27T06:43:39;97765.50;;;7.35;100.00
21236;BME280;10775;42.678;26.324;2023-01-27T06:46:05;97769.69;;;7.43;100.00
21236;BME280;10775;42.678;26.324;2023-01-27T06:48:30;97761.72;;;7.50;100.00
21236;BME280;10775;42.678;26.324;2023-01-27T06:50:56;97769.34;;;7.58;100.00
21236;BME280;10775;42.678;26.324;2023-01-27T06:53:22;97783.88;;;7.67;100.00
21236;BME280;10775;42.678;26.324;2023-01-27T06:55:48;97795.78;;;7.77;100.00
21236;BME280;10775;42.678;26.324;2023-01-27T06:58:19;97803.38;;;7.88;100.00
21236;BME280;10775;42.678;26.324;2023-01-27T07:00:44;97808.25;;;8.01;100.00
21236;BME280;10775;42.678;26.324;2023-01-27T07:03:11;97806.38;;;8.08;100.00
21236;BME280;10775;42.678;26.324;2023-01-27T07:05:38;97817.63;;;8.09;100.00
21236;BME280;10775;42.678;26.324;2023-01-27T07:08:04;97810.59;;;8.12;100.00
21236;BME280;10775;42.678;26.324;2023-01-27T07:10:30;97804.72;;;8.04;100.00
21236;BME280;10775;42.678;26.324;2023-01-27T07:13:12;97802.09;;;8.05;100.00
21236;BME280;10775;42.678;26.324;2023-01-27T07:15:39;97802.84;;;8.09;100.00
21236;BME280;10775;42.678;26.324;2023-01-27T07:18:05;97800.91;;;8.17;100.00
21236;BME280;10775;42.678;26.324;2023-01-27T07:20:31;97800.97;;;8.16;100.00
21236;BME280;10775;42.678;26.324;2023-01-27T07:23:02;97801.19;;;8.06;100.00
21236;BME280;10775;42.678;26.324;2023-01-27T07:25:30;97804.72;;;8.04;100.00
21236;BME280;10775;42.678;26.324;2023-01-27T07:27:57;97806.53;;;8.00;100.00
21236;BME280;10775;42.678;26.324;2023-01-27T07:30:23;97797.09;;;7.95;100.00
21236;BME280;10775;42.678;26.324;2023-01-27T07:32:49;97791.16;;;7.90;100.00
21236;BME280;10775;42.678;26.324;2023-01-27T07:35:16;97785.81;;;7.96;100.00
21236;BME280;10775;42.678;26.324;2023-01-27T07:37:42;97782.03;;;8.09;100.00
21236;BME280;10775;42.678;26.324;2023-01-27T07:40:09;97783.50;;;8.19;100.00
21236;BME280;10775;42.678;26.324;2023-01-27T07:42:35;97764.28;;;8.25;100.00
21236;BME280;10775;42.678;26.324;2023-01-27T07:45:01;97775.28;;;8.36;100.00
21236;BME280;10775;42.678;26.324;2023-01-27T07:47:26;97767.53;;;8.33;100.00
21236;BME280;10775;42.678;26.324;2023-01-27T07:49:52;97764.06;;;8.34;100.00
21236;BME280;10775;42.678;26.324;2023-01-27T07:52:18;97770.13;;;8.35;100.00
21236;BME280;10775;42.678;26.324;2023-01-27T07:54:43;97758.56;;;8.46;100.00
21236;BME280;10775;42.678;26.324;2023-01-27T07:57:09;97750.59;;;8.53;100.00
21236;BME280;10775;42.678;26.324;2023-01-27T07:59:35;97749.19;;;8.39;100.00
21236;BME280;10775;42.678;26.324;2023-01-27T08:02:00;97748.16;;;8.46;100.00
21236;BME280;10775;42.678;26.324;2023-01-27T08:04:27;97752.97;;;8.60;100.00
21236;BME280;10775;42.678;26.324;2023-01-27T08:06:53;97749.66;;;8.55;100.00
21236;BME280;10775;42.678;26.324;2023-01-27T08:09:19;97752.25;;;8.55;100.00
21236;BME280;10775;42.678;26.324;2023-01-27T08:11:45;97752.56;;;8.43;100.00
21236;BME280;10775;42.678;26.324;2023-01-27T08:14:10;97743.53;;;8.56;100.00
21236;BME280;10775;42.678;26.324;2023-01-27T08:16:36;97742.22;;;8.73;100.00
21236;BME280;10775;42.678;26.324;2023-01-27T08:19:02;97734.22;;;8.80;100.00
21236;BME280;10775;42.678;26.324;2023-01-27T08:21:28;97720.44;;;8.75;100.00
21236;BME280;10775;42.678;26.324;2023-01-27T08:24:00;97715.31;;;8.72;100.00
21236;BME280;10775;42.678;26.324;2023-01-27T08:26:26;97715.78;;;8.86;100.00
21236;BME280;10775;42.678;26.324;2023-01-27T08:28:52;97710.66;;;8.83;100.00
21236;BME280;10775;42.678;26.324;2023-01-27T08:31:18;97701.06;;;8.85;100.00
21236;BME280;10775;42.678;26.324;2023-01-27T08:33:49;97690.22;;;8.99;100.00
21236;BME280;10775;42.678;26.324;2023-01-27T08:36:16;97685.81;;;9.01;100.00
21236;BME280;10775;42.678;26.324;2023-01-27T08:38:43;97688.16;;;9.10;100.00
21236;BME280;10775;42.678;26.324;2023-01-27T08:41:12;97695.78;;;9.17;100.00
21236;BME280;10775;42.678;26.324;2023-01-27T08:43:38;97695.06;;;9.11;100.00
21236;BME280;10775;42.678;26.324;2023-01-27T08:46:05;97714.84;;;9.19;100.00
21236;BME280;10775;42.678;26.324;2023-01-27T08:48:31;97721.72;;;9.21;100.00
21236;BME280;10775;42.678;26.324;2023-01-27T08:50:58;97728.78;;;9.18;100.00
21236;BME280;10775;42.678;26.324;2023-01-27T08:53:25;97720.09;;;9.17;100.00
21236;BME280;10775;42.678;26.324;2023-01-27T08:55:52;97717.91;;;9.03;100.00
21236;BME280;10775;42.678;26.324;2023-01-27T08:58:20;97723.94;;;9.05;100.00
21236;BME280;10775;42.678;26.324;2023-01-27T09:00:46;97720.91;;;9.19;100.00
21236;BME280;10775;42.678;26.324;2023-01-27T09:03:12;97720.81;;;9.22;100.00
21236;BME280;10775;42.678;26.324;2023-01-27T09:05:39;97719.03;;;9.24;100.00
21236;BME280;10775;42.678;26.324;2023-01-27T09:08:05;97703.56;;;9.18;100.00
21236;BME280;10775;42.678;26.324;2023-01-27T09:10:35;97701.94;;;9.14;100.00
21236;BME280;10775;42.678;26.324;2023-01-27T09:13:01;97704.25;;;8.95;100.00
21236;BME280;10775;42.678;26.324;2023-01-27T09:15:26;97693.72;;;8.98;100.00
21236;BME280;10775;42.678;26.324;2023-01-27T09:17:52;97680.59;;;9.01;100.00
21236;BME280;10775;42.678;26.324;2023-01-27T09:20:18;97670.28;;;8.98;100.00
21236;BME280;10775;42.678;26.324;2023-01-27T09:22:43;97659.75;;;9.01;100.00
21236;BME280;10775;42.678;26.324;2023-01-27T09:25:13;97667.56;;;9.01;100.00
21236;BME280;10775;42.678;26.324;2023-01-27T09:27:39;97669.41;;;8.98;100.00
21236;BME280;10775;42.678;26.324;2023-01-27T09:30:05;97664.38;;;8.91;100.00
21236;BME280;10775;42.678;26.324;2023-01-27T09:32:31;97658.44;;;8.86;100.00
21236;BME280;10775;42.678;26.324;2023-01-27T09:34:57;97662.66;;;8.90;100.00
21236;BME280;10775;42.678;26.324;2023-01-27T09:37:23;97669.09;;;8.79;100.00
21236;BME280;10775;42.678;26.324;2023-01-27T09:39:53;97673.41;;;8.80;100.00
21236;BME280;10775;42.678;26.324;2023-01-27T09:42:46;97676.97;;;8.77;100.00
21236;BME280;10775;42.678;26.324;2023-01-27T09:45:42;97669.19;;;8.76;100.00
21236;BME280;10775;42.678;26.324;2023-01-27T09:54:42;97656.28;;;8.38;100.00
21236;BME280;10775;42.678;26.324;2023-01-27T10:00:29;97648.22;;;8.16;100.00
21236;BME280;10775;42.678;26.324;2023-01-27T10:17:26;97611.31;;;8.64;100.00
21236;BME280;10775;42.678;26.324;2023-01-27T10:25:25;97589.69;;;8.61;100.00
21236;BME280;10775;42.678;26.324;2023-01-27T10:28:01;97587.09;;;8.61;100.00
21236;BME280;10775;42.678;26.324;2023-01-27T10:30:34;97587.09;;;8.61;100.00
21236;BME280;10775;42.678;26.324;2023-01-27T10:33:09;97585.00;;;8.44;100.00
21236;BME280;10775;42.678;26.324;2023-01-27T10:35:57;97576.69;;;8.28;100.00
21236;BME280;10775;42.678;26.324;2023-01-27T10:44:13;97555.44;;;8.14;100.00
21236;BME280;10775;42.678;26.324;2023-01-27T10:50:08;97553.13;;;8.33;100.00
21236;BME280;10775;42.678;26.324;2023-01-27T10:52:52;97547.13;;;8.31;100.00
21236;BME280;10775;42.678;26.324;2023-01-27T10:58:18;97541.75;;;8.37;100.00
21236;BME280;10775;42.678;26.324;2023-01-27T11:00:50;97539.97;;;8.39;100.00
21236;BME280;10775;42.678;26.324;2023-01-27T11:05:55;97541.06;;;8.30;100.00
21236;BME280;10775;42.678;26.324;2023-01-27T11:08:37;97532.97;;;8.41;100.00
21236;BME280;10775;42.678;26.324;2023-01-27T11:11:07;97530.19;;;8.47;100.00
21236;BME280;10775;42.678;26.324;2023-01-27T11:13:59;97522.16;;;8.55;100.00
21236;BME280;10775;42.678;26.324;2023-01-27T11:16:32;97521.97;;;8.61;100.00
21236;BME280;10775;42.678;26.324;2023-01-27T11:19:25;97518.41;;;8.63;100.00
21236;BME280;10775;42.678;26.324;2023-01-27T11:21:49;97523.50;;;8.66;100.00
21236;BME280;10775;42.678;26.324;2023-01-27T11:24:33;97524.41;;;8.67;100.00
21236;BME280;10775;42.678;26.324;2023-01-27T11:34:06;97534.59;;;8.45;100.00
21236;BME280;10775;42.678;26.324;2023-01-27T11:36:36;97538.22;;;8.38;100.00
21236;BME280;10775;42.678;26.324;2023-01-27T11:39:02;97533.94;;;8.37;100.00
21236;BME280;10775;42.678;26.324;2023-01-27T11:41:37;97530.63;;;8.61;100.00
21236;BME280;10775;42.678;26.324;2023-01-27T11:44:19;97533.88;;;8.69;100.00
21236;BME280;10775;42.678;26.324;2023-01-27T11:46:46;97526.09;;;8.68;100.00
21236;BME280;10775;42.678;26.324;2023-01-27T11:49:20;97537.16;;;8.46;100.00
21236;BME280;10775;42.678;26.324;2023-01-27T11:51:47;97525.34;;;8.33;100.00
21236;BME280;10775;42.678;26.324;2023-01-27T11:54:23;97527.38;;;8.23;100.00
21236;BME280;10775;42.678;26.324;2023-01-27T11:56:50;97525.34;;;8.33;100.00
21236;BME280;10775;42.678;26.324;2023-01-27T11:59:23;97518.59;;;8.57;100.00
21236;BME280;10775;42.678;26.324;2023-01-27T12:02:00;97522.53;;;8.41;100.00
21236;BME280;10775;42.678;26.324;2023-01-27T12:07:13;97515.88;;;8.31;100.00
21236;BME280;10775;42.678;26.324;2023-01-27T12:09:42;97522.28;;;8.50;100.00
21236;BME280;10775;42.678;26.324;2023-01-27T12:14:51;97514.03;;;8.34;100.00
21236;BME280;10775;42.678;26.324;2023-01-27T12:17:30;97505.72;;;8.53;100.00
21236;BME280;10775;42.678;26.324;2023-01-27T12:22:56;97519.31;;;7.70;100.00
21236;BME280;10775;42.678;26.324;2023-01-27T12:25:47;97521.22;;;7.95;100.00
21236;BME280;10775;42.678;26.324;2023-01-27T12:31:29;97523.81;;;7.63;100.00
21236;BME280;10775;42.678;26.324;2023-01-27T12:34:20;97519.22;;;7.40;100.00
21236;BME280;10775;42.678;26.324;2023-01-27T12:36:49;97520.53;;;7.57;100.00
21236;BME280;10775;42.678;26.324;2023-01-27T12:39:25;97524.19;;;7.50;100.00
21236;BME280;10775;42.678;26.324;2023-01-27T12:41:53;97524.03;;;7.22;100.00
21236;BME280;10775;42.678;26.324;2023-01-27T12:44:19;97525.97;;;7.13;100.00
21236;BME280;10775;42.678;26.324;2023-01-27T12:47:00;97527.47;;;7.22;100.00
21236;BME280;10775;42.678;26.324;2023-01-27T12:49:36;97539.00;;;7.12;100.00
21236;BME280;10775;42.678;26.324;2023-01-27T12:52:05;97538.03;;;7.50;100.00
21236;BME280;10775;42.678;26.324;2023-01-27T12:54:34;97540.75;;;7.11;100.00
21236;BME280;10775;42.678;26.324;2023-01-27T12:57:03;97535.56;;;7.46;100.00
21236;BME280;10775;42.678;26.324;2023-01-27T12:59:30;97536.03;;;7.26;100.00
21236;BME280;10775;42.678;26.324;2023-01-27T13:02:10;97533.47;;;7.60;100.00
21236;BME280;10775;42.678;26.324;2023-01-27T13:04:41;97536.03;;;7.27;100.00
21236;BME280;10775;42.678;26.324;2023-01-27T13:07:13;97536.88;;;7.62;100.00
21236;BME280;10775;42.678;26.324;2023-01-27T13:09:58;97534.28;;;7.62;100.00
21236;BME280;10775;42.678;26.324;2023-01-27T13:12:27;97537.88;;;7.56;100.00
21236;BME280;10775;42.678;26.324;2023-01-27T13:14:59;97539.00;;;7.46;100.00
21236;BME280;10775;42.678;26.324;2023-01-27T13:17:40;97543.47;;;7.41;100.00
21236;BME280;10775;42.678;26.324;2023-01-27T13:22:46;97543.00;;;7.25;100.00
21236;BME280;10775;42.678;26.324;2023-01-27T13:25:25;97535.25;;;7.56;100.00
21236;BME280;10775;42.678;26.324;2023-01-27T13:27:55;97543.16;;;7.19;100.00
21236;BME280;10775;42.678;26.324;2023-01-27T13:30:27;97539.13;;;7.42;100.00
21236;BME280;10775;42.678;26.324;2023-01-27T13:33:01;97546.59;;;7.54;100.00
21236;BME280;10775;42.678;26.324;2023-01-27T13:35:40;97548.34;;;7.88;100.00
21236;BME280;10775;42.678;26.324;2023-01-27T13:38:41;97544.22;;;7.79;100.00
21236;BME280;10775;42.678;26.324;2023-01-27T13:41:17;97541.88;;;7.70;100.00
21236;BME280;10775;42.678;26.324;2023-01-27T13:43:52;97551.53;;;7.30;100.00
21236;BME280;10775;42.678;26.324;2023-01-27T13:46:27;97555.34;;;7.17;100.00
21236;BME280;10775;42.678;26.324;2023-01-27T13:48:58;97554.69;;;6.70;100.00
21236;BME280;10775;42.678;26.324;2023-01-27T13:51:29;97552.00;;;7.12;100.00
21236;BME280;10775;42.678;26.324;2023-01-27T13:54:03;97564.81;;;7.54;100.00
21236;BME280;10775;42.678;26.324;2023-01-27T14:05:04;97564.81;;;7.18;100.00
21236;BME280;10775;42.678;26.324;2023-01-27T14:08:04;97557.47;;;7.00;100.00
21236;BME280;10775;42.678;26.324;2023-01-27T14:10:38;97560.69;;;7.47;100.00
21236;BME280;10775;42.678;26.324;2023-01-27T14:13:18;97560.16;;;6.95;100.00
21236;BME280;10775;42.678;26.324;2023-01-27T14:15:59;97569.28;;;7.13;100.00
21236;BME280;10775;42.678;26.324;2023-01-27T14:18:34;97563.66;;;7.31;100.00
21236;BME280;10775;42.678;26.324;2023-01-27T14:27:00;97564.34;;;7.02;100.00
21236;BME280;10775;42.678;26.324;2023-01-27T14:32:31;97572.34;;;7.30;100.00
21236;BME280;10775;42.678;26.324;2023-01-27T14:38:15;97563.75;;;6.91;100.00
21236;BME280;10775;42.678;26.324;2023-01-27T14:41:07;97565.88;;;7.11;100.00
21236;BME280;10775;42.678;26.324;2023-01-27T14:43:50;97562.25;;;6.81;100.00
21236;BME280;10775;42.678;26.324;2023-01-27T14:46:43;97561.53;;;6.74;100.00